sensor_id;sensor_type;location;lat;lon;timestamp;P1;durP1;ratioP1;P2;durP2;ratioP2
34657;SDS011;20865;43.312;27.152;2023-07-22T00:00:19;12.43;;;5.40;;
34657;SDS011;20865;43.312;27.152;2023-07-22T00:02:48;9.28;;;5.40;;
34657;SDS011;20865;43.312;27.152;2023-07-22T00:05:15;9.53;;;5.40;;
34657;SDS011;20865;43.312;27.152;2023-07-22T00:07:45;7.90;;;5.03;;
34657;SDS011;20865;43.312;27.152;2023-07-22T00:10:13;8.95;;;5.17;;
34657;SDS011;20865;43.312;27.152;2023-07-22T00:12:41;6.40;;;4.78;;
34657;SDS011;20865;43.312;27.152;2023-07-22T00:15:08;10.98;;;5.70;;
34657;SDS011;20865;43.312;27.152;2023-07-22T00:17:39;9.05;;;6.03;;
34657;SDS011;20865;43.312;27.152;2023-07-22T00:20:07;9.90;;;5.42;;
34657;SDS011;20865;43.312;27.152;2023-07-22T00:22:39;10.85;;;6.15;;
34657;SDS011;20865;43.312;27.152;2023-07-22T00:25:13;12.03;;;6.28;;
34657;SDS011;20865;43.312;27.152;2023-07-22T00:27:38;11.70;;;6.70;;
34657;SDS011;20865;43.312;27.152;2023-07-22T00:30:07;12.37;;;6.62;;
34657;SDS011;20865;43.312;27.152;2023-07-22T00:32:36;10.45;;;6.90;;
34657;SDS011;20865;43.312;27.152;2023-07-22T00:35:04;17.50;;;7.25;;
34657;SDS011;20865;43.312;27.152;2023-07-22T00:37:33;13.10;;;6.50;;
34657;SDS011;20865;43.312;27.152;2023-07-22T00:40:01;7.65;;;5.67;;
34657;SDS011;20865;43.312;27.152;2023-07-22T00:42:33;7.40;;;5.47;;
34657;SDS011;20865;43.312;27.152;2023-07-22T00:45:01;10.35;;;6.35;;
34657;SDS011;20865;43.312;27.152;2023-07-22T00:47:29;9.73;;;5.33;;
34657;SDS011;20865;43.312;27.152;2023-07-22T00:49:57;11.68;;;5.65;;
34657;SDS011;20865;43.312;27.152;2023-07-22T00:52:26;11.08;;;5.97;;
34657;SDS011;20865;43.312;27.152;2023-07-22T00:54:54;10.28;;;6.25;;
34657;SDS011;20865;43.312;27.152;2023-07-22T00:57:22;12.60;;;6.78;;
34657;SDS011;20865;43.312;27.152;2023-07-22T00:59:50;10.32;;;6.78;;
34657;SDS011;20865;43.312;27.152;2023-07-22T01:02:18;13.88;;;7.25;;
34657;SDS011;20865;43.312;27.152;2023-07-22T01:04:46;13.65;;;6.72;;
34657;SDS011;20865;43.312;27.152;2023-07-22T01:07:13;14.30;;;6.22;;
34657;SDS011;20865;43.312;27.152;2023-07-22T01:09:42;12.47;;;6.78;;
34657;SDS011;20865;43.312;27.152;2023-07-22T01:12:11;12.63;;;7.35;;
34657;SDS011;20865;43.312;27.152;2023-07-22T01:14:39;14.70;;;7.15;;
34657;SDS011;20865;43.312;27.152;2023-07-22T01:17:08;11.88;;;6.75;;
34657;SDS011;20865;43.312;27.152;2023-07-22T01:19:37;11.18;;;6.50;;
34657;SDS011;20865;43.312;27.152;2023-07-22T01:22:05;12.03;;;6.78;;
34657;SDS011;20865;43.312;27.152;2023-07-22T01:24:33;10.85;;;6.47;;
34657;SDS011;20865;43.312;27.152;2023-07-22T01:27:01;13.62;;;6.30;;
34657;SDS011;20865;43.312;27.152;2023-07-22T01:29:31;10.58;;;5.95;;
34657;SDS011;20865;43.312;27.152;2023-07-22T01:31:58;12.78;;;6.55;;
34657;SDS011;20865;43.312;27.152;2023-07-22T01:34:26;14.00;;;6.37;;
34657;SDS011;20865;43.312;27.152;2023-07-22T01:36:55;15.78;;;6.60;;
34657;SDS011;20865;43.312;27.152;2023-07-22T01:39:22;11.57;;;6.70;;
34657;SDS011;20865;43.312;27.152;2023-07-22T01:41:50;13.78;;;6.28;;
34657;SDS011;20865;43.312;27.152;2023-07-22T01:44:18;13.22;;;6.90;;
34657;SDS011;20865;43.312;27.152;2023-07-22T01:46:45;11.22;;;6.55;;
34657;SDS011;20865;43.312;27.152;2023-07-22T01:49:13;10.90;;;6.95;;
34657;SDS011;20865;43.312;27.152;2023-07-22T01:51:40;9.05;;;6.12;;
34657;SDS011;20865;43.312;27.152;2023-07-22T01:54:08;10.38;;;6.67;;
34657;SDS011;20865;43.312;27.152;2023-07-22T01:56:36;12.07;;;6.83;;
34657;SDS011;20865;43.312;27.152;2023-07-22T01:59:04;17.95;;;6.53;;
34657;SDS011;20865;43.312;27.152;2023-07-22T02:01:32;11.53;;;6.08;;
34657;SDS011;20865;43.312;27.152;2023-07-22T02:04:00;9.88;;;6.00;;
34657;SDS011;20865;43.312;27.152;2023-07-22T02:06:28;11.97;;;6.28;;
34657;SDS011;20865;43.312;27.152;2023-07-22T02:08:55;13.48;;;6.35;;
34657;SDS011;20865;43.312;27.152;2023-07-22T02:11:23;13.90;;;5.95;;
34657;SDS011;20865;43.312;27.152;2023-07-22T02:13:51;10.78;;;5.83;;
34657;SDS011;20865;43.312;27.152;2023-07-22T02:16:18;9.93;;;5.55;;
34657;SDS011;20865;43.312;27.152;2023-07-22T02:18:46;13.48;;;5.75;;
34657;SDS011;20865;43.312;27.152;2023-07-22T02:21:13;10.78;;;6.03;;
34657;SDS011;20865;43.312;27.152;2023-07-22T02:23:41;9.13;;;5.22;;
34657;SDS011;20865;43.312;27.152;2023-07-22T02:26:09;10.15;;;6.33;;
34657;SDS011;20865;43.312;27.152;2023-07-22T02:28:36;10.32;;;5.55;;
34657;SDS011;20865;43.312;27.152;2023-07-22T02:31:04;12.95;;;6.35;;
34657;SDS011;20865;43.312;27.152;2023-07-22T02:33:32;13.93;;;6.20;;
34657;SDS011;20865;43.312;27.152;2023-07-22T02:36:00;9.38;;;6.03;;
34657;SDS011;20865;43.312;27.152;2023-07-22T02:38:28;11.55;;;6.20;;
34657;SDS011;20865;43.312;27.152;2023-07-22T02:41:05;8.08;;;5.75;;
34657;SDS011;20865;43.312;27.152;2023-07-22T02:43:28;11.25;;;5.78;;
34657;SDS011;20865;43.312;27.152;2023-07-22T02:45:56;9.98;;;5.83;;
34657;SDS011;20865;43.312;27.152;2023-07-22T02:48:24;8.95;;;5.67;;
34657;SDS011;20865;43.312;27.152;2023-07-22T02:50:51;10.32;;;5.20;;
34657;SDS011;20865;43.312;27.152;2023-07-22T02:53:19;12.00;;;5.97;;
34657;SDS011;20865;43.312;27.152;2023-07-22T02:55:47;10.05;;;6.12;;
34657;SDS011;20865;43.312;27.152;2023-07-22T02:58:14;11.80;;;6.15;;
34657;SDS011;20865;43.312;27.152;2023-07-22T03:00:42;8.33;;;5.53;;
34657;SDS011;20865;43.312;27.152;2023-07-22T03:03:09;11.40;;;5.85;;
34657;SDS011;20865;43.312;27.152;2023-07-22T03:05:37;14.87;;;6.12;;
34657;SDS011;20865;43.312;27.152;2023-07-22T03:08:05;10.68;;;6.20;;
34657;SDS011;20865;43.312;27.152;2023-07-22T03:10:33;9.33;;;6.08;;
34657;SDS011;20865;43.312;27.152;2023-07-22T03:13:00;17.23;;;6.85;;
34657;SDS011;20865;43.312;27.152;2023-07-22T03:15:28;12.68;;;6.25;;
34657;SDS011;20865;43.312;27.152;2023-07-22T03:17:56;8.50;;;5.78;;
34657;SDS011;20865;43.312;27.152;2023-07-22T03:20:25;10.28;;;6.05;;
34657;SDS011;20865;43.312;27.152;2023-07-22T03:22:52;10.03;;;6.80;;
34657;SDS011;20865;43.312;27.152;2023-07-22T03:25:20;9.70;;;6.00;;
34657;SDS011;20865;43.312;27.152;2023-07-22T03:27:48;12.03;;;6.78;;
34657;SDS011;20865;43.312;27.152;2023-07-22T03:30:16;10.18;;;6.17;;
34657;SDS011;20865;43.312;27.152;2023-07-22T03:32:45;12.88;;;6.10;;
34657;SDS011;20865;43.312;27.152;2023-07-22T03:35:13;14.55;;;6.37;;
34657;SDS011;20865;43.312;27.152;2023-07-22T03:37:41;9.90;;;6.33;;
34657;SDS011;20865;43.312;27.152;2023-07-22T03:40:09;8.05;;;5.60;;
34657;SDS011;20865;43.312;27.152;2023-07-22T03:42:39;13.68;;;7.35;;
34657;SDS011;20865;43.312;27.152;2023-07-22T03:45:07;10.23;;;5.65;;
34657;SDS011;20865;43.312;27.152;2023-07-22T03:47:35;14.87;;;6.78;;
34657;SDS011;20865;43.312;27.152;2023-07-22T03:50:05;9.93;;;6.12;;
34657;SDS011;20865;43.312;27.152;2023-07-22T03:52:33;9.60;;;6.30;;
34657;SDS011;20865;43.312;27.152;2023-07-22T03:55:01;10.48;;;6.35;;
34657;SDS011;20865;43.312;27.152;2023-07-22T03:57:30;48.80;;;20.92;;
34657;SDS011;20865;43.312;27.152;2023-07-22T03:59:58;37.85;;;17.98;;
34657;SDS011;20865;43.312;27.152;2023-07-22T04:02:26;34.83;;;17.12;;
34657;SDS011;20865;43.312;27.152;2023-07-22T04:04:54;26.93;;;13.80;;
34657;SDS011;20865;43.312;27.152;2023-07-22T04:07:21;11.65;;;7.17;;
34657;SDS011;20865;43.312;27.152;2023-07-22T04:09:49;11.28;;;6.15;;
34657;SDS011;20865;43.312;27.152;2023-07-22T04:12:17;10.65;;;6.35;;
34657;SDS011;20865;43.312;27.152;2023-07-22T04:14:44;10.43;;;6.60;;
34657;SDS011;20865;43.312;27.152;2023-07-22T04:17:12;9.43;;;5.90;;
34657;SDS011;20865;43.312;27.152;2023-07-22T04:19:41;12.60;;;6.08;;
34657;SDS011;20865;43.312;27.152;2023-07-22T04:22:08;11.48;;;5.78;;
34657;SDS011;20865;43.312;27.152;2023-07-22T04:24:36;9.10;;;5.87;;
34657;SDS011;20865;43.312;27.152;2023-07-22T04:27:04;12.65;;;6.90;;
34657;SDS011;20865;43.312;27.152;2023-07-22T04:29:32;10.80;;;6.33;;
34657;SDS011;20865;43.312;27.152;2023-07-22T04:32:00;11.85;;;6.67;;
34657;SDS011;20865;43.312;27.152;2023-07-22T04:34:29;21.42;;;10.05;;
34657;SDS011;20865;43.312;27.152;2023-07-22T04:36:57;13.60;;;7.37;;
34657;SDS011;20865;43.312;27.152;2023-07-22T04:39:25;9.75;;;6.30;;
34657;SDS011;20865;43.312;27.152;2023-07-22T04:41:53;11.05;;;6.87;;
34657;SDS011;20865;43.312;27.152;2023-07-22T04:44:21;9.10;;;6.15;;
34657;SDS011;20865;43.312;27.152;2023-07-22T04:46:49;12.53;;;6.33;;
34657;SDS011;20865;43.312;27.152;2023-07-22T04:49:17;10.40;;;6.53;;
34657;SDS011;20865;43.312;27.152;2023-07-22T04:51:51;15.95;;;7.58;;
34657;SDS011;20865;43.312;27.152;2023-07-22T04:54:19;15.20;;;8.63;;
34657;SDS011;20865;43.312;27.152;2023-07-22T04:56:46;13.65;;;7.97;;
34657;SDS011;20865;43.312;27.152;2023-07-22T04:59:14;18.05;;;8.10;;
34657;SDS011;20865;43.312;27.152;2023-07-22T05:01:42;12.68;;;8.38;;
34657;SDS011;20865;43.312;27.152;2023-07-22T05:04:09;15.03;;;8.45;;
34657;SDS011;20865;43.312;27.152;2023-07-22T05:06:37;13.22;;;8.55;;
34657;SDS011;20865;43.312;27.152;2023-07-22T05:09:04;14.43;;;9.05;;
34657;SDS011;20865;43.312;27.152;2023-07-22T05:11:32;12.80;;;8.70;;
34657;SDS011;20865;43.312;27.152;2023-07-22T05:14:00;17.07;;;8.45;;
34657;SDS011;20865;43.312;27.152;2023-07-22T05:16:28;15.35;;;9.38;;
34657;SDS011;20865;43.312;27.152;2023-07-22T05:18:56;15.53;;;9.75;;
34657;SDS011;20865;43.312;27.152;2023-07-22T05:21:23;15.55;;;8.38;;
34657;SDS011;20865;43.312;27.152;2023-07-22T05:23:51;13.03;;;8.65;;
34657;SDS011;20865;43.312;27.152;2023-07-22T05:26:18;11.53;;;8.08;;
34657;SDS011;20865;43.312;27.152;2023-07-22T05:28:46;12.80;;;7.17;;
34657;SDS011;20865;43.312;27.152;2023-07-22T05:31:14;10.55;;;7.35;;
34657;SDS011;20865;43.312;27.152;2023-07-22T05:33:42;12.80;;;7.65;;
34657;SDS011;20865;43.312;27.152;2023-07-22T05:36:09;11.43;;;7.10;;
34657;SDS011;20865;43.312;27.152;2023-07-22T05:38:37;16.85;;;7.47;;
34657;SDS011;20865;43.312;27.152;2023-07-22T05:41:05;11.25;;;6.30;;
34657;SDS011;20865;43.312;27.152;2023-07-22T05:43:33;14.93;;;6.05;;
34657;SDS011;20865;43.312;27.152;2023-07-22T05:46:00;10.72;;;6.53;;
34657;SDS011;20865;43.312;27.152;2023-07-22T05:48:28;11.63;;;5.75;;
34657;SDS011;20865;43.312;27.152;2023-07-22T05:50:55;12.80;;;6.53;;
34657;SDS011;20865;43.312;27.152;2023-07-22T05:53:23;13.03;;;7.30;;
34657;SDS011;20865;43.312;27.152;2023-07-22T05:55:51;13.50;;;7.50;;
34657;SDS011;20865;43.312;27.152;2023-07-22T05:58:20;11.83;;;6.80;;
34657;SDS011;20865;43.312;27.152;2023-07-22T06:00:47;11.65;;;7.00;;
34657;SDS011;20865;43.312;27.152;2023-07-22T06:03:17;10.80;;;6.12;;
34657;SDS011;20865;43.312;27.152;2023-07-22T06:05:46;9.00;;;5.50;;
34657;SDS011;20865;43.312;27.152;2023-07-22T06:08:14;9.63;;;5.58;;
34657;SDS011;20865;43.312;27.152;2023-07-22T06:10:41;12.80;;;5.95;;
34657;SDS011;20865;43.312;27.152;2023-07-22T06:13:09;11.50;;;6.28;;
34657;SDS011;20865;43.312;27.152;2023-07-22T06:15:37;8.75;;;5.65;;
34657;SDS011;20865;43.312;27.152;2023-07-22T06:18:04;13.28;;;6.78;;
34657;SDS011;20865;43.312;27.152;2023-07-22T06:20:35;11.45;;;5.83;;
34657;SDS011;20865;43.312;27.152;2023-07-22T06:23:04;9.35;;;5.62;;
34657;SDS011;20865;43.312;27.152;2023-07-22T06:25:32;10.85;;;5.72;;
34657;SDS011;20865;43.312;27.152;2023-07-22T06:28:00;10.55;;;6.28;;
34657;SDS011;20865;43.312;27.152;2023-07-22T06:30:27;10.20;;;5.72;;
34657;SDS011;20865;43.312;27.152;2023-07-22T06:32:55;12.65;;;6.35;;
34657;SDS011;20865;43.312;27.152;2023-07-22T06:35:22;8.40;;;4.85;;
34657;SDS011;20865;43.312;27.152;2023-07-22T06:37:50;6.30;;;5.05;;
34657;SDS011;20865;43.312;27.152;2023-07-22T06:40:18;9.25;;;5.10;;
34657;SDS011;20865;43.312;27.152;2023-07-22T06:42:45;8.55;;;5.40;;
34657;SDS011;20865;43.312;27.152;2023-07-22T06:45:14;11.33;;;5.58;;
34657;SDS011;20865;43.312;27.152;2023-07-22T06:47:42;11.12;;;5.53;;
34657;SDS011;20865;43.312;27.152;2023-07-22T06:50:09;6.22;;;4.62;;
34657;SDS011;20865;43.312;27.152;2023-07-22T06:52:37;9.08;;;4.95;;
34657;SDS011;20865;43.312;27.152;2023-07-22T06:55:05;12.10;;;4.58;;
34657;SDS011;20865;43.312;27.152;2023-07-22T06:57:33;10.28;;;4.67;;
34657;SDS011;20865;43.312;27.152;2023-07-22T07:00:01;10.25;;;4.17;;
34657;SDS011;20865;43.312;27.152;2023-07-22T07:02:29;8.15;;;4.22;;
34657;SDS011;20865;43.312;27.152;2023-07-22T07:04:56;5.62;;;3.67;;
34657;SDS011;20865;43.312;27.152;2023-07-22T07:07:24;7.00;;;3.80;;
34657;SDS011;20865;43.312;27.152;2023-07-22T07:09:51;6.35;;;3.55;;
34657;SDS011;20865;43.312;27.152;2023-07-22T07:12:19;8.73;;;3.92;;
34657;SDS011;20865;43.312;27.152;2023-07-22T07:14:49;5.65;;;3.45;;
34657;SDS011;20865;43.312;27.152;2023-07-22T07:17:17;6.85;;;3.80;;
34657;SDS011;20865;43.312;27.152;2023-07-22T07:19:45;10.65;;;4.03;;
34657;SDS011;20865;43.312;27.152;2023-07-22T07:22:12;6.22;;;3.65;;
34657;SDS011;20865;43.312;27.152;2023-07-22T07:24:40;8.03;;;4.05;;
34657;SDS011;20865;43.312;27.152;2023-07-22T07:27:07;8.45;;;4.35;;
34657;SDS011;20865;43.312;27.152;2023-07-22T07:29:35;5.67;;;3.80;;
34657;SDS011;20865;43.312;27.152;2023-07-22T07:32:03;12.43;;;4.50;;
34657;SDS011;20865;43.312;27.152;2023-07-22T07:34:31;14.10;;;4.00;;
34657;SDS011;20865;43.312;27.152;2023-07-22T07:36:58;6.90;;;3.98;;
34657;SDS011;20865;43.312;27.152;2023-07-22T07:39:26;9.78;;;4.37;;
34657;SDS011;20865;43.312;27.152;2023-07-22T07:41:54;9.13;;;4.10;;
34657;SDS011;20865;43.312;27.152;2023-07-22T07:44:23;8.18;;;4.58;;
34657;SDS011;20865;43.312;27.152;2023-07-22T07:46:52;7.03;;;4.37;;
34657;SDS011;20865;43.312;27.152;2023-07-22T07:49:20;8.28;;;3.08;;
34657;SDS011;20865;43.312;27.152;2023-07-22T07:51:48;18.20;;;4.53;;
34657;SDS011;20865;43.312;27.152;2023-07-22T07:54:15;10.65;;;4.05;;
34657;SDS011;20865;43.312;27.152;2023-07-22T07:56:43;10.55;;;3.90;;
34657;SDS011;20865;43.312;27.152;2023-07-22T07:59:11;11.75;;;4.12;;
34657;SDS011;20865;43.312;27.152;2023-07-22T08:01:38;12.73;;;3.98;;
34657;SDS011;20865;43.312;27.152;2023-07-22T08:04:07;8.55;;;4.12;;
34657;SDS011;20865;43.312;27.152;2023-07-22T08:06:35;12.93;;;4.65;;
34657;SDS011;20865;43.312;27.152;2023-07-22T08:09:03;11.40;;;4.30;;
34657;SDS011;20865;43.312;27.152;2023-07-22T08:11:31;12.10;;;4.65;;
34657;SDS011;20865;43.312;27.152;2023-07-22T08:13:58;8.45;;;4.15;;
34657;SDS011;20865;43.312;27.152;2023-07-22T08:16:27;7.85;;;3.92;;
34657;SDS011;20865;43.312;27.152;2023-07-22T08:18:54;8.08;;;4.15;;
34657;SDS011;20865;43.312;27.152;2023-07-22T08:21:22;13.10;;;4.62;;
34657;SDS011;20865;43.312;27.152;2023-07-22T08:23:50;11.10;;;3.92;;
34657;SDS011;20865;43.312;27.152;2023-07-22T08:26:17;9.43;;;3.87;;
34657;SDS011;20865;43.312;27.152;2023-07-22T08:28:49;8.18;;;4.10;;
34657;SDS011;20865;43.312;27.152;2023-07-22T08:31:16;25.10;;;4.55;;
34657;SDS011;20865;43.312;27.152;2023-07-22T08:33:43;7.60;;;4.17;;
34657;SDS011;20865;43.312;27.152;2023-07-22T08:36:11;12.85;;;4.12;;
34657;SDS011;20865;43.312;27.152;2023-07-22T08:38:38;11.08;;;4.53;;
34657;SDS011;20865;43.312;27.152;2023-07-22T08:41:06;6.10;;;3.30;;
34657;SDS011;20865;43.312;27.152;2023-07-22T08:43:34;10.05;;;4.03;;
34657;SDS011;20865;43.312;27.152;2023-07-22T08:46:05;16.30;;;3.02;;
34657;SDS011;20865;43.312;27.152;2023-07-22T08:48:33;9.83;;;3.30;;
34657;SDS011;20865;43.312;27.152;2023-07-22T08:51:04;8.53;;;3.08;;
34657;SDS011;20865;43.312;27.152;2023-07-22T08:53:33;11.78;;;3.47;;
34657;SDS011;20865;43.312;27.152;2023-07-22T08:56:01;8.60;;;3.25;;
34657;SDS011;20865;43.312;27.152;2023-07-22T08:58:29;7.65;;;3.30;;
34657;SDS011;20865;43.312;27.152;2023-07-22T09:00:57;8.43;;;3.60;;
34657;SDS011;20865;43.312;27.152;2023-07-22T09:03:25;29.27;;;3.95;;
34657;SDS011;20865;43.312;27.152;2023-07-22T09:05:54;5.53;;;3.40;;
34657;SDS011;20865;43.312;27.152;2023-07-22T09:08:22;13.08;;;3.70;;
34657;SDS011;20865;43.312;27.152;2023-07-22T09:10:50;6.60;;;4.00;;
34657;SDS011;20865;43.312;27.152;2023-07-22T09:13:18;9.18;;;3.17;;
34657;SDS011;20865;43.312;27.152;2023-07-22T09:15:46;10.30;;;3.58;;
34657;SDS011;20865;43.312;27.152;2023-07-22T09:18:14;8.48;;;3.17;;
34657;SDS011;20865;43.312;27.152;2023-07-22T09:20:42;7.35;;;3.27;;
34657;SDS011;20865;43.312;27.152;2023-07-22T09:23:09;7.85;;;3.30;;
34657;SDS011;20865;43.312;27.152;2023-07-22T09:25:40;12.50;;;4.35;;
34657;SDS011;20865;43.312;27.152;2023-07-22T09:28:08;10.13;;;3.90;;
34657;SDS011;20865;43.312;27.152;2023-07-22T09:30:37;6.58;;;3.42;;
34657;SDS011;20865;43.312;27.152;2023-07-22T09:33:28;8.40;;;3.17;;
34657;SDS011;20865;43.312;27.152;2023-07-22T09:35:48;7.45;;;2.95;;
34657;SDS011;20865;43.312;27.152;2023-07-22T09:38:27;9.95;;;2.92;;
34657;SDS011;20865;43.312;27.152;2023-07-22T09:40:52;7.83;;;2.90;;
34657;SDS011;20865;43.312;27.152;2023-07-22T09:43:20;9.28;;;2.85;;
34657;SDS011;20865;43.312;27.152;2023-07-22T09:45:49;9.13;;;2.90;;
34657;SDS011;20865;43.312;27.152;2023-07-22T09:48:17;11.78;;;2.87;;
34657;SDS011;20865;43.312;27.152;2023-07-22T09:50:46;9.50;;;3.12;;
34657;SDS011;20865;43.312;27.152;2023-07-22T09:53:24;8.35;;;3.58;;
34657;SDS011;20865;43.312;27.152;2023-07-22T09:55:52;9.25;;;3.65;;
34657;SDS011;20865;43.312;27.152;2023-07-22T09:58:20;12.40;;;3.62;;
34657;SDS011;20865;43.312;27.152;2023-07-22T10:00:50;132.78;;;18.73;;
34657;SDS011;20865;43.312;27.152;2023-07-22T10:03:18;14.90;;;4.20;;
34657;SDS011;20865;43.312;27.152;2023-07-22T10:05:48;6.95;;;3.25;;
34657;SDS011;20865;43.312;27.152;2023-07-22T10:08:18;14.58;;;3.37;;
34657;SDS011;20865;43.312;27.152;2023-07-22T10:10:48;8.83;;;2.90;;
34657;SDS011;20865;43.312;27.152;2023-07-22T10:13:18;17.80;;;2.95;;
34657;SDS011;20865;43.312;27.152;2023-07-22T10:15:46;9.25;;;4.40;;
34657;SDS011;20865;43.312;27.152;2023-07-22T10:18:15;20.68;;;3.20;;
34657;SDS011;20865;43.312;27.152;2023-07-22T10:20:45;14.63;;;4.20;;
34657;SDS011;20865;43.312;27.152;2023-07-22T10:23:15;10.60;;;3.22;;
34657;SDS011;20865;43.312;27.152;2023-07-22T10:25:43;6.45;;;3.25;;
34657;SDS011;20865;43.312;27.152;2023-07-22T10:28:12;8.38;;;3.20;;
34657;SDS011;20865;43.312;27.152;2023-07-22T10:30:41;13.60;;;3.65;;
34657;SDS011;20865;43.312;27.152;2023-07-22T10:33:09;12.70;;;3.52;;
34657;SDS011;20865;43.312;27.152;2023-07-22T10:35:41;11.93;;;2.95;;
34657;SDS011;20865;43.312;27.152;2023-07-22T10:38:13;13.38;;;3.50;;
34657;SDS011;20865;43.312;27.152;2023-07-22T10:40:54;10.08;;;3.37;;
34657;SDS011;20865;43.312;27.152;2023-07-22T10:43:31;9.78;;;3.45;;
34657;SDS011;20865;43.312;27.152;2023-07-22T10:46:11;12.37;;;3.45;;
34657;SDS011;20865;43.312;27.152;2023-07-22T10:48:40;15.70;;;3.27;;
34657;SDS011;20865;43.312;27.152;2023-07-22T10:51:15;8.10;;;3.55;;
34657;SDS011;20865;43.312;27.152;2023-07-22T10:53:47;7.20;;;3.08;;
34657;SDS011;20865;43.312;27.152;2023-07-22T10:56:22;14.15;;;3.60;;
34657;SDS011;20865;43.312;27.152;2023-07-22T11:07:03;13.03;;;3.70;;
34657;SDS011;20865;43.312;27.152;2023-07-22T11:09:33;10.82;;;4.37;;
34657;SDS011;20865;43.312;27.152;2023-07-22T11:14:35;13.18;;;3.20;;
34657;SDS011;20865;43.312;27.152;2023-07-22T11:17:07;16.67;;;3.70;;
34657;SDS011;20865;43.312;27.152;2023-07-22T11:19:36;12.88;;;3.30;;
34657;SDS011;20865;43.312;27.152;2023-07-22T11:22:04;11.50;;;3.55;;
34657;SDS011;20865;43.312;27.152;2023-07-22T11:24:33;8.25;;;3.05;;
34657;SDS011;20865;43.312;27.152;2023-07-22T11:27:05;9.65;;;4.05;;
34657;SDS011;20865;43.312;27.152;2023-07-22T11:29:35;15.05;;;3.35;;
34657;SDS011;20865;43.312;27.152;2023-07-22T11:32:03;7.78;;;2.87;;
34657;SDS011;20865;43.312;27.152;2023-07-22T11:34:32;13.62;;;3.02;;
34657;SDS011;20865;43.312;27.152;2023-07-22T11:37:00;7.72;;;3.20;;
34657;SDS011;20865;43.312;27.152;2023-07-22T11:39:28;11.85;;;3.45;;
34657;SDS011;20865;43.312;27.152;2023-07-22T11:41:57;15.58;;;3.52;;
34657;SDS011;20865;43.312;27.152;2023-07-22T11:44:30;14.05;;;5.08;;
34657;SDS011;20865;43.312;27.152;2023-07-22T11:46:59;12.23;;;3.62;;
34657;SDS011;20865;43.312;27.152;2023-07-22T11:49:30;14.70;;;3.25;;
34657;SDS011;20865;43.312;27.152;2023-07-22T11:52:01;10.98;;;3.62;;
34657;SDS011;20865;43.312;27.152;2023-07-22T11:54:34;15.08;;;3.58;;
34657;SDS011;20865;43.312;27.152;2023-07-22T11:59:54;12.55;;;3.75;;
34657;SDS011;20865;43.312;27.152;2023-07-22T12:02:24;10.43;;;3.12;;
34657;SDS011;20865;43.312;27.152;2023-07-22T12:05:00;16.17;;;3.70;;
34657;SDS011;20865;43.312;27.152;2023-07-22T12:07:27;13.13;;;3.10;;
34657;SDS011;20865;43.312;27.152;2023-07-22T12:09:57;9.48;;;3.27;;
34657;SDS011;20865;43.312;27.152;2023-07-22T12:12:39;8.73;;;2.62;;
34657;SDS011;20865;43.312;27.152;2023-07-22T12:15:14;7.08;;;2.83;;
34657;SDS011;20865;43.312;27.152;2023-07-22T12:17:48;7.35;;;2.77;;
34657;SDS011;20865;43.312;27.152;2023-07-22T12:20:31;9.68;;;3.27;;
34657;SDS011;20865;43.312;27.152;2023-07-22T12:23:03;11.43;;;3.00;;
34657;SDS011;20865;43.312;27.152;2023-07-22T12:25:31;8.63;;;2.95;;
34657;SDS011;20865;43.312;27.152;2023-07-22T12:27:59;7.00;;;2.60;;
34657;SDS011;20865;43.312;27.152;2023-07-22T12:30:26;11.93;;;2.67;;
34657;SDS011;20865;43.312;27.152;2023-07-22T12:32:54;10.25;;;3.83;;
34657;SDS011;20865;43.312;27.152;2023-07-22T12:35:22;7.53;;;3.10;;
34657;SDS011;20865;43.312;27.152;2023-07-22T12:37:49;8.08;;;2.72;;
34657;SDS011;20865;43.312;27.152;2023-07-22T12:40:17;10.78;;;2.98;;
34657;SDS011;20865;43.312;27.152;2023-07-22T12:42:46;13.13;;;2.95;;
34657;SDS011;20865;43.312;27.152;2023-07-22T12:45:14;8.08;;;3.08;;
34657;SDS011;20865;43.312;27.152;2023-07-22T12:47:42;8.78;;;3.05;;
34657;SDS011;20865;43.312;27.152;2023-07-22T12:50:09;10.75;;;2.90;;
34657;SDS011;20865;43.312;27.152;2023-07-22T12:52:37;7.75;;;3.08;;
34657;SDS011;20865;43.312;27.152;2023-07-22T12:55:05;8.55;;;2.37;;
34657;SDS011;20865;43.312;27.152;2023-07-22T12:57:33;10.13;;;3.10;;
34657;SDS011;20865;43.312;27.152;2023-07-22T13:00:00;14.28;;;2.90;;
34657;SDS011;20865;43.312;27.152;2023-07-22T13:02:30;9.88;;;2.83;;
34657;SDS011;20865;43.312;27.152;2023-07-22T13:04:58;9.00;;;2.87;;
34657;SDS011;20865;43.312;27.152;2023-07-22T13:07:25;12.15;;;3.08;;
34657;SDS011;20865;43.312;27.152;2023-07-22T13:09:53;11.90;;;3.67;;
34657;SDS011;20865;43.312;27.152;2023-07-22T13:12:22;11.43;;;2.75;;
34657;SDS011;20865;43.312;27.152;2023-07-22T13:14:50;10.70;;;2.92;;
34657;SDS011;20865;43.312;27.152;2023-07-22T13:17:18;7.25;;;2.95;;
34657;SDS011;20865;43.312;27.152;2023-07-22T13:19:47;8.80;;;2.80;;
34657;SDS011;20865;43.312;27.152;2023-07-22T13:22:16;12.78;;;3.02;;
34657;SDS011;20865;43.312;27.152;2023-07-22T13:24:43;9.43;;;3.40;;
34657;SDS011;20865;43.312;27.152;2023-07-22T13:27:11;10.85;;;3.55;;
34657;SDS011;20865;43.312;27.152;2023-07-22T13:29:38;12.23;;;3.62;;
34657;SDS011;20865;43.312;27.152;2023-07-22T13:32:06;12.68;;;2.90;;
34657;SDS011;20865;43.312;27.152;2023-07-22T13:34:34;38.38;;;4.83;;
34657;SDS011;20865;43.312;27.152;2023-07-22T13:37:02;10.18;;;2.67;;
34657;SDS011;20865;43.312;27.152;2023-07-22T13:39:30;8.38;;;3.20;;
34657;SDS011;20865;43.312;27.152;2023-07-22T13:41:57;10.53;;;2.98;;
34657;SDS011;20865;43.312;27.152;2023-07-22T13:44:25;10.63;;;2.70;;
34657;SDS011;20865;43.312;27.152;2023-07-22T13:46:53;7.30;;;3.25;;
34657;SDS011;20865;43.312;27.152;2023-07-22T13:49:21;12.05;;;2.80;;
34657;SDS011;20865;43.312;27.152;2023-07-22T13:51:49;9.03;;;2.80;;
34657;SDS011;20865;43.312;27.152;2023-07-22T13:54:16;24.43;;;4.00;;
34657;SDS011;20865;43.312;27.152;2023-07-22T13:56:45;15.65;;;3.33;;
34657;SDS011;20865;43.312;27.152;2023-07-22T13:59:13;8.43;;;2.80;;
34657;SDS011;20865;43.312;27.152;2023-07-22T14:01:41;10.15;;;2.80;;
34657;SDS011;20865;43.312;27.152;2023-07-22T14:04:09;8.28;;;3.60;;
34657;SDS011;20865;43.312;27.152;2023-07-22T14:06:36;13.83;;;3.30;;
34657;SDS011;20865;43.312;27.152;2023-07-22T14:09:04;10.68;;;3.87;;
34657;SDS011;20865;43.312;27.152;2023-07-22T14:11:32;10.48;;;2.60;;
34657;SDS011;20865;43.312;27.152;2023-07-22T14:13:59;14.20;;;3.47;;
34657;SDS011;20865;43.312;27.152;2023-07-22T14:16:27;12.47;;;3.05;;
34657;SDS011;20865;43.312;27.152;2023-07-22T14:18:54;10.93;;;3.02;;
34657;SDS011;20865;43.312;27.152;2023-07-22T14:21:22;15.28;;;2.87;;
34657;SDS011;20865;43.312;27.152;2023-07-22T14:23:50;8.08;;;2.42;;
34657;SDS011;20865;43.312;27.152;2023-07-22T14:26:17;11.20;;;2.58;;
34657;SDS011;20865;43.312;27.152;2023-07-22T14:28:46;6.60;;;2.83;;
34657;SDS011;20865;43.312;27.152;2023-07-22T14:31:13;8.00;;;2.80;;
34657;SDS011;20865;43.312;27.152;2023-07-22T14:33:41;10.18;;;3.27;;
34657;SDS011;20865;43.312;27.152;2023-07-22T14:36:09;15.10;;;3.37;;
34657;SDS011;20865;43.312;27.152;2023-07-22T14:38:37;8.78;;;3.45;;
34657;SDS011;20865;43.312;27.152;2023-07-22T14:41:05;17.42;;;2.90;;
34657;SDS011;20865;43.312;27.152;2023-07-22T14:43:32;10.85;;;2.87;;
34657;SDS011;20865;43.312;27.152;2023-07-22T14:46:00;5.05;;;2.37;;